sensor_id;sensor_type;location;lat;lon;timestamp;P1;durP1;ratioP1;P2;durP2;ratioP2
84814;SDS011;75050;53.190;5.562;2024-03-07T00:00:00;19.13;;;15.35;;
84814;SDS011;75050;53.190;5.562;2024-03-07T00:02:45;18.35;;;13.35;;
84814;SDS011;75050;53.190;5.562;2024-03-07T00:05:14;17.98;;;12.63;;
84814;SDS011;75050;53.190;5.562;2024-03-07T00:07:41;19.70;;;16.60;;
84814;SDS011;75050;53.190;5.562;2024-03-07T00:10:07;19.70;;;14.45;;
84814;SDS011;75050;53.190;5.562;2024-03-07T00:12:34;20.27;;;13.82;;
84814;SDS011;75050;53.190;5.562;2024-03-07T00:15:06;18.88;;;14.35;;
84814;SDS011;75050;53.190;5.562;2024-03-07T00:17:32;18.98;;;15.32;;
84814;SDS011;75050;53.190;5.562;2024-03-07T00:19:57;18.17;;;14.70;;
84814;SDS011;75050;53.190;5.562;2024-03-07T00:22:23;17.13;;;12.80;;
84814;SDS011;75050;53.190;5.562;2024-03-07T00:24:51;16.40;;;13.30;;
84814;SDS011;75050;53.190;5.562;2024-03-07T00:27:17;18.13;;;12.73;;
84814;SDS011;75050;53.190;5.562;2024-03-07T00:29:43;17.17;;;13.68;;
84814;SDS011;75050;53.190;5.562;2024-03-07T00:32:08;18.23;;;14.75;;
84814;SDS011;75050;53.190;5.562;2024-03-07T00:34:35;19.38;;;13.68;;
84814;SDS011;75050;53.190;5.562;2024-03-07T00:37:00;17.85;;;12.57;;
84814;SDS011;75050;53.190;5.562;2024-03-07T00:39:26;16.20;;;13.57;;
84814;SDS011;75050;53.190;5.562;2024-03-07T00:41:51;17.00;;;14.05;;
84814;SDS011;75050;53.190;5.562;2024-03-07T00:44:16;16.05;;;12.80;;
84814;SDS011;75050;53.190;5.562;2024-03-07T00:46:42;16.02;;;14.32;;
84814;SDS011;75050;53.190;5.562;2024-03-07T00:49:07;17.40;;;12.95;;
84814;SDS011;75050;53.190;5.562;2024-03-07T00:51:33;17.35;;;14.55;;
84814;SDS011;75050;53.190;5.562;2024-03-07T00:53:59;16.80;;;12.88;;
84814;SDS011;75050;53.190;5.562;2024-03-07T00:56:24;18.48;;;14.15;;
84814;SDS011;75050;53.190;5.562;2024-03-07T00:58:52;17.77;;;13.55;;
84814;SDS011;75050;53.190;5.562;2024-03-07T01:01:18;17.15;;;12.10;;
84814;SDS011;75050;53.190;5.562;2024-03-07T01:03:46;19.38;;;15.73;;
84814;SDS011;75050;53.190;5.562;2024-03-07T01:06:12;17.00;;;14.57;;
84814;SDS011;75050;53.190;5.562;2024-03-07T01:08:38;16.92;;;13.35;;
84814;SDS011;75050;53.190;5.562;2024-03-07T01:11:03;17.90;;;14.02;;
84814;SDS011;75050;53.190;5.562;2024-03-07T01:13:37;17.08;;;13.15;;
84814;SDS011;75050;53.190;5.562;2024-03-07T01:16:06;17.23;;;15.18;;
84814;SDS011;75050;53.190;5.562;2024-03-07T01:18:32;17.50;;;14.15;;
84814;SDS011;75050;53.190;5.562;2024-03-07T01:20:58;17.25;;;12.38;;
84814;SDS011;75050;53.190;5.562;2024-03-07T01:23:24;17.60;;;13.10;;
84814;SDS011;75050;53.190;5.562;2024-03-07T01:25:50;16.30;;;12.15;;
84814;SDS011;75050;53.190;5.562;2024-03-07T01:28:15;17.80;;;14.27;;
84814;SDS011;75050;53.190;5.562;2024-03-07T01:30:42;16.27;;;12.80;;
84814;SDS011;75050;53.190;5.562;2024-03-07T01:33:07;18.48;;;14.32;;
84814;SDS011;75050;53.190;5.562;2024-03-07T01:35:33;18.80;;;14.43;;
84814;SDS011;75050;53.190;5.562;2024-03-07T01:37:58;18.55;;;14.20;;
84814;SDS011;75050;53.190;5.562;2024-03-07T01:40:24;16.90;;;13.55;;
84814;SDS011;75050;53.190;5.562;2024-03-07T01:42:49;17.30;;;14.35;;
84814;SDS011;75050;53.190;5.562;2024-03-07T01:45:15;16.90;;;14.38;;
84814;SDS011;75050;53.190;5.562;2024-03-07T01:47:41;17.88;;;13.75;;
84814;SDS011;75050;53.190;5.562;2024-03-07T01:50:06;20.58;;;14.00;;
84814;SDS011;75050;53.190;5.562;2024-03-07T01:52:32;18.10;;;15.40;;
84814;SDS011;75050;53.190;5.562;2024-03-07T01:54:58;19.77;;;16.38;;
84814;SDS011;75050;53.190;5.562;2024-03-07T01:57:24;18.55;;;16.17;;
84814;SDS011;75050;53.190;5.562;2024-03-07T01:59:50;17.92;;;14.32;;
84814;SDS011;75050;53.190;5.562;2024-03-07T02:02:16;26.00;;;23.50;;
84814;SDS011;75050;53.190;5.562;2024-03-07T02:04:42;18.95;;;15.40;;
84814;SDS011;75050;53.190;5.562;2024-03-07T02:07:08;17.83;;;13.13;;
84814;SDS011;75050;53.190;5.562;2024-03-07T02:09:36;17.95;;;14.48;;
84814;SDS011;75050;53.190;5.562;2024-03-07T02:12:02;18.85;;;16.83;;
84814;SDS011;75050;53.190;5.562;2024-03-07T02:14:27;17.55;;;13.80;;
84814;SDS011;75050;53.190;5.562;2024-03-07T02:16:54;19.75;;;15.90;;
84814;SDS011;75050;53.190;5.562;2024-03-07T02:19:21;17.08;;;14.27;;
84814;SDS011;75050;53.190;5.562;2024-03-07T02:21:47;18.75;;;15.18;;
84814;SDS011;75050;53.190;5.562;2024-03-07T02:24:13;16.92;;;13.43;;
84814;SDS011;75050;53.190;5.562;2024-03-07T02:26:40;19.42;;;17.15;;
84814;SDS011;75050;53.190;5.562;2024-03-07T02:29:06;18.92;;;14.13;;
84814;SDS011;75050;53.190;5.562;2024-03-07T02:31:31;18.85;;;14.10;;
84814;SDS011;75050;53.190;5.562;2024-03-07T02:34:01;17.08;;;13.48;;
84814;SDS011;75050;53.190;5.562;2024-03-07T02:36:30;17.65;;;13.82;;
84814;SDS011;75050;53.190;5.562;2024-03-07T02:38:55;18.17;;;14.80;;
84814;SDS011;75050;53.190;5.562;2024-03-07T02:41:21;17.98;;;15.10;;
84814;SDS011;75050;53.190;5.562;2024-03-07T02:43:46;19.17;;;14.48;;
84814;SDS011;75050;53.190;5.562;2024-03-07T02:46:12;18.73;;;14.55;;
84814;SDS011;75050;53.190;5.562;2024-03-07T02:48:37;19.02;;;15.80;;
84814;SDS011;75050;53.190;5.562;2024-03-07T02:51:04;16.35;;;13.80;;
84814;SDS011;75050;53.190;5.562;2024-03-07T02:53:31;17.40;;;13.90;;
84814;SDS011;75050;53.190;5.562;2024-03-07T02:55:57;18.35;;;14.25;;
84814;SDS011;75050;53.190;5.562;2024-03-07T02:58:23;18.08;;;16.17;;
84814;SDS011;75050;53.190;5.562;2024-03-07T03:00:49;26.40;;;24.00;;
84814;SDS011;75050;53.190;5.562;2024-03-07T03:03:22;16.52;;;13.38;;
84814;SDS011;75050;53.190;5.562;2024-03-07T03:05:48;16.33;;;12.20;;
84814;SDS011;75050;53.190;5.562;2024-03-07T03:08:13;17.85;;;14.52;;
84814;SDS011;75050;53.190;5.562;2024-03-07T03:10:39;17.25;;;15.18;;
84814;SDS011;75050;53.190;5.562;2024-03-07T03:13:04;18.50;;;15.73;;
84814;SDS011;75050;53.190;5.562;2024-03-07T03:15:30;17.98;;;14.10;;
84814;SDS011;75050;53.190;5.562;2024-03-07T03:17:56;17.10;;;14.73;;
84814;SDS011;75050;53.190;5.562;2024-03-07T03:20:24;16.73;;;13.90;;
84814;SDS011;75050;53.190;5.562;2024-03-07T03:22:54;16.73;;;13.85;;
84814;SDS011;75050;53.190;5.562;2024-03-07T03:25:20;17.60;;;14.75;;
84814;SDS011;75050;53.190;5.562;2024-03-07T03:27:46;17.13;;;14.82;;
84814;SDS011;75050;53.190;5.562;2024-03-07T03:30:12;17.35;;;14.18;;
84814;SDS011;75050;53.190;5.562;2024-03-07T03:32:42;16.40;;;14.15;;
84814;SDS011;75050;53.190;5.562;2024-03-07T03:35:07;16.90;;;13.80;;
84814;SDS011;75050;53.190;5.562;2024-03-07T03:37:38;16.08;;;14.32;;
84814;SDS011;75050;53.190;5.562;2024-03-07T03:40:05;17.27;;;14.65;;
84814;SDS011;75050;53.190;5.562;2024-03-07T03:42:31;17.25;;;14.35;;
84814;SDS011;75050;53.190;5.562;2024-03-07T03:44:56;16.45;;;13.70;;
84814;SDS011;75050;53.190;5.562;2024-03-07T03:47:21;17.38;;;13.30;;
84814;SDS011;75050;53.190;5.562;2024-03-07T03:49:47;15.32;;;12.40;;
84814;SDS011;75050;53.190;5.562;2024-03-07T03:52:12;16.52;;;14.05;;
84814;SDS011;75050;53.190;5.562;2024-03-07T03:54:37;15.95;;;14.10;;
84814;SDS011;75050;53.190;5.562;2024-03-07T03:57:03;16.45;;;14.65;;
84814;SDS011;75050;53.190;5.562;2024-03-07T03:59:28;17.67;;;14.57;;
84814;SDS011;75050;53.190;5.562;2024-03-07T04:01:54;17.85;;;12.68;;
84814;SDS011;75050;53.190;5.562;2024-03-07T04:04:19;15.55;;;11.63;;
84814;SDS011;75050;53.190;5.562;2024-03-07T04:06:44;15.48;;;12.70;;
84814;SDS011;75050;53.190;5.562;2024-03-07T04:09:10;16.15;;;13.35;;
84814;SDS011;75050;53.190;5.562;2024-03-07T04:11:35;16.45;;;14.40;;
84814;SDS011;75050;53.190;5.562;2024-03-07T04:14:01;15.50;;;13.38;;
84814;SDS011;75050;53.190;5.562;2024-03-07T04:16:27;15.70;;;12.52;;
84814;SDS011;75050;53.190;5.562;2024-03-07T04:18:52;17.35;;;14.55;;
84814;SDS011;75050;53.190;5.562;2024-03-07T04:21:17;18.92;;;15.02;;
84814;SDS011;75050;53.190;5.562;2024-03-07T04:23:43;17.80;;;15.90;;
84814;SDS011;75050;53.190;5.562;2024-03-07T04:26:10;17.55;;;15.70;;
84814;SDS011;75050;53.190;5.562;2024-03-07T04:28:36;16.48;;;14.52;;
84814;SDS011;75050;53.190;5.562;2024-03-07T04:31:02;24.27;;;22.08;;
84814;SDS011;75050;53.190;5.562;2024-03-07T04:33:27;17.15;;;15.40;;
84814;SDS011;75050;53.190;5.562;2024-03-07T04:35:53;14.60;;;12.82;;
84814;SDS011;75050;53.190;5.562;2024-03-07T04:38:18;17.80;;;13.63;;
84814;SDS011;75050;53.190;5.562;2024-03-07T04:40:44;17.08;;;14.73;;
84814;SDS011;75050;53.190;5.562;2024-03-07T04:43:09;14.10;;;12.40;;
84814;SDS011;75050;53.190;5.562;2024-03-07T04:45:35;15.25;;;13.63;;
84814;SDS011;75050;53.190;5.562;2024-03-07T04:48:01;16.67;;;14.70;;
84814;SDS011;75050;53.190;5.562;2024-03-07T04:50:26;17.00;;;14.63;;
84814;SDS011;75050;53.190;5.562;2024-03-07T04:52:52;17.00;;;13.23;;
84814;SDS011;75050;53.190;5.562;2024-03-07T04:55:17;16.90;;;12.85;;
84814;SDS011;75050;53.190;5.562;2024-03-07T04:57:43;16.20;;;14.43;;
84814;SDS011;75050;53.190;5.562;2024-03-07T05:00:12;16.55;;;12.85;;
84814;SDS011;75050;53.190;5.562;2024-03-07T05:02:44;14.95;;;12.40;;
84814;SDS011;75050;53.190;5.562;2024-03-07T05:05:11;14.85;;;11.20;;
84814;SDS011;75050;53.190;5.562;2024-03-07T05:07:38;22.75;;;20.77;;
84814;SDS011;75050;53.190;5.562;2024-03-07T05:10:05;13.57;;;11.57;;
84814;SDS011;75050;53.190;5.562;2024-03-07T05:12:32;16.33;;;14.63;;
84814;SDS011;75050;53.190;5.562;2024-03-07T05:14:57;16.05;;;14.35;;
84814;SDS011;75050;53.190;5.562;2024-03-07T05:17:23;14.98;;;13.25;;
84814;SDS011;75050;53.190;5.562;2024-03-07T05:19:48;15.18;;;12.30;;
84814;SDS011;75050;53.190;5.562;2024-03-07T05:22:14;16.25;;;13.30;;
84814;SDS011;75050;53.190;5.562;2024-03-07T05:24:41;14.63;;;12.20;;
84814;SDS011;75050;53.190;5.562;2024-03-07T05:27:10;15.55;;;13.18;;
84814;SDS011;75050;53.190;5.562;2024-03-07T05:29:38;14.60;;;13.07;;
84814;SDS011;75050;53.190;5.562;2024-03-07T05:32:23;17.27;;;15.57;;
84814;SDS011;75050;53.190;5.562;2024-03-07T05:34:50;15.35;;;13.57;;
84814;SDS011;75050;53.190;5.562;2024-03-07T05:37:16;16.67;;;14.30;;
84814;SDS011;75050;53.190;5.562;2024-03-07T05:39:41;22.92;;;20.92;;
84814;SDS011;75050;53.190;5.562;2024-03-07T05:42:07;15.93;;;13.50;;
84814;SDS011;75050;53.190;5.562;2024-03-07T05:44:35;15.75;;;14.15;;
84814;SDS011;75050;53.190;5.562;2024-03-07T05:47:01;16.42;;;13.77;;
84814;SDS011;75050;53.190;5.562;2024-03-07T05:49:26;15.93;;;13.50;;
84814;SDS011;75050;53.190;5.562;2024-03-07T05:51:51;15.18;;;13.50;;
84814;SDS011;75050;53.190;5.562;2024-03-07T05:54:17;17.48;;;14.35;;
84814;SDS011;75050;53.190;5.562;2024-03-07T05:56:42;16.13;;;13.43;;
84814;SDS011;75050;53.190;5.562;2024-03-07T05:59:08;15.45;;;13.70;;
84814;SDS011;75050;53.190;5.562;2024-03-07T06:01:37;15.32;;;13.57;;
84814;SDS011;75050;53.190;5.562;2024-03-07T06:04:03;15.73;;;13.07;;
84814;SDS011;75050;53.190;5.562;2024-03-07T06:06:33;17.20;;;12.88;;
84814;SDS011;75050;53.190;5.562;2024-03-07T06:09:00;18.08;;;15.43;;
84814;SDS011;75050;53.190;5.562;2024-03-07T06:11:32;15.20;;;13.13;;
84814;SDS011;75050;53.190;5.562;2024-03-07T06:14:04;15.50;;;11.98;;
84814;SDS011;75050;53.190;5.562;2024-03-07T06:16:31;16.63;;;14.55;;
84814;SDS011;75050;53.190;5.562;2024-03-07T06:18:59;16.65;;;14.38;;
84814;SDS011;75050;53.190;5.562;2024-03-07T06:21:26;16.80;;;14.77;;
84814;SDS011;75050;53.190;5.562;2024-03-07T06:23:51;18.63;;;14.60;;
84814;SDS011;75050;53.190;5.562;2024-03-07T06:26:24;17.77;;;13.45;;
84814;SDS011;75050;53.190;5.562;2024-03-07T06:29:06;17.77;;;14.52;;
84814;SDS011;75050;53.190;5.562;2024-03-07T06:31:33;15.27;;;12.73;;
84814;SDS011;75050;53.190;5.562;2024-03-07T06:33:59;16.65;;;13.75;;
84814;SDS011;75050;53.190;5.562;2024-03-07T06:36:25;16.70;;;14.88;;
84814;SDS011;75050;53.190;5.562;2024-03-07T06:38:50;16.02;;;13.38;;
84814;SDS011;75050;53.190;5.562;2024-03-07T06:41:16;17.85;;;15.30;;
84814;SDS011;75050;53.190;5.562;2024-03-07T06:43:44;16.20;;;14.50;;
84814;SDS011;75050;53.190;5.562;2024-03-07T06:46:10;15.05;;;13.45;;
84814;SDS011;75050;53.190;5.562;2024-03-07T06:48:37;18.95;;;16.15;;
84814;SDS011;75050;53.190;5.562;2024-03-07T06:51:06;16.50;;;14.80;;
84814;SDS011;75050;53.190;5.562;2024-03-07T06:53:31;17.08;;;12.82;;
84814;SDS011;75050;53.190;5.562;2024-03-07T06:55:57;15.95;;;12.45;;
84814;SDS011;75050;53.190;5.562;2024-03-07T06:58:22;16.52;;;13.70;;
84814;SDS011;75050;53.190;5.562;2024-03-07T07:00:51;17.52;;;15.85;;
84814;SDS011;75050;53.190;5.562;2024-03-07T07:03:18;16.10;;;13.82;;
84814;SDS011;75050;53.190;5.562;2024-03-07T07:05:45;16.35;;;13.68;;
84814;SDS011;75050;53.190;5.562;2024-03-07T07:08:10;17.55;;;15.48;;
84814;SDS011;75050;53.190;5.562;2024-03-07T07:10:37;18.52;;;15.80;;
84814;SDS011;75050;53.190;5.562;2024-03-07T07:13:05;17.67;;;13.95;;
84814;SDS011;75050;53.190;5.562;2024-03-07T07:15:31;17.88;;;13.68;;
84814;SDS011;75050;53.190;5.562;2024-03-07T07:17:56;16.75;;;14.63;;
84814;SDS011;75050;53.190;5.562;2024-03-07T07:20:22;18.63;;;16.42;;
84814;SDS011;75050;53.190;5.562;2024-03-07T07:22:49;22.15;;;19.95;;
84814;SDS011;75050;53.190;5.562;2024-03-07T07:25:14;17.00;;;13.73;;
84814;SDS011;75050;53.190;5.562;2024-03-07T07:30:11;19.63;;;14.75;;
84814;SDS011;75050;53.190;5.562;2024-03-07T07:32:38;18.35;;;16.42;;
84814;SDS011;75050;53.190;5.562;2024-03-07T07:35:05;16.17;;;12.52;;
84814;SDS011;75050;53.190;5.562;2024-03-07T07:37:36;17.05;;;15.02;;
84814;SDS011;75050;53.190;5.562;2024-03-07T07:40:05;18.20;;;15.07;;
84814;SDS011;75050;53.190;5.562;2024-03-07T07:42:38;17.15;;;14.65;;
84814;SDS011;75050;53.190;5.562;2024-03-07T07:45:14;19.85;;;14.65;;
84814;SDS011;75050;53.190;5.562;2024-03-07T07:47:50;18.33;;;13.52;;
84814;SDS011;75050;53.190;5.562;2024-03-07T07:50:17;18.10;;;15.07;;
84814;SDS011;75050;53.190;5.562;2024-03-07T07:52:51;19.73;;;14.88;;
84814;SDS011;75050;53.190;5.562;2024-03-07T07:55:20;18.27;;;14.90;;
84814;SDS011;75050;53.190;5.562;2024-03-07T07:57:49;18.48;;;14.02;;
84814;SDS011;75050;53.190;5.562;2024-03-07T08:00:20;20.75;;;17.38;;
84814;SDS011;75050;53.190;5.562;2024-03-07T08:05:23;19.60;;;17.17;;
84814;SDS011;75050;53.190;5.562;2024-03-07T08:07:50;20.48;;;17.10;;
84814;SDS011;75050;53.190;5.562;2024-03-07T08:10:27;20.58;;;15.93;;
84814;SDS011;75050;53.190;5.562;2024-03-07T08:12:54;22.30;;;17.50;;
84814;SDS011;75050;53.190;5.562;2024-03-07T08:15:20;20.05;;;15.90;;
84814;SDS011;75050;53.190;5.562;2024-03-07T08:17:47;21.60;;;15.57;;
84814;SDS011;75050;53.190;5.562;2024-03-07T08:20:16;21.08;;;15.57;;
84814;SDS011;75050;53.190;5.562;2024-03-07T08:22:43;21.92;;;17.35;;
84814;SDS011;75050;53.190;5.562;2024-03-07T08:25:13;22.02;;;16.27;;
84814;SDS011;75050;53.190;5.562;2024-03-07T08:27:40;21.60;;;15.73;;
84814;SDS011;75050;53.190;5.562;2024-03-07T08:30:08;22.58;;;17.23;;
84814;SDS011;75050;53.190;5.562;2024-03-07T08:32:41;22.75;;;17.00;;
84814;SDS011;75050;53.190;5.562;2024-03-07T08:35:07;26.70;;;24.00;;
84814;SDS011;75050;53.190;5.562;2024-03-07T08:37:40;24.52;;;19.20;;
84814;SDS011;75050;53.190;5.562;2024-03-07T08:40:07;23.70;;;17.30;;
84814;SDS011;75050;53.190;5.562;2024-03-07T08:42:36;24.52;;;18.40;;
84814;SDS011;75050;53.190;5.562;2024-03-07T08:45:02;22.20;;;16.90;;
84814;SDS011;75050;53.190;5.562;2024-03-07T08:47:33;24.75;;;18.45;;
84814;SDS011;75050;53.190;5.562;2024-03-07T08:49:59;22.92;;;17.60;;
84814;SDS011;75050;53.190;5.562;2024-03-07T08:52:25;24.63;;;16.80;;
84814;SDS011;75050;53.190;5.562;2024-03-07T08:54:51;21.00;;;15.82;;
84814;SDS011;75050;53.190;5.562;2024-03-07T08:57:18;24.20;;;17.25;;
84814;SDS011;75050;53.190;5.562;2024-03-07T08:59:44;23.75;;;18.38;;
84814;SDS011;75050;53.190;5.562;2024-03-07T09:02:10;24.02;;;18.27;;
84814;SDS011;75050;53.190;5.562;2024-03-07T09:04:39;26.25;;;18.23;;
84814;SDS011;75050;53.190;5.562;2024-03-07T09:07:05;25.30;;;19.65;;
84814;SDS011;75050;53.190;5.562;2024-03-07T09:09:34;26.70;;;17.77;;
84814;SDS011;75050;53.190;5.562;2024-03-07T09:12:00;24.23;;;18.08;;
84814;SDS011;75050;53.190;5.562;2024-03-07T09:14:30;23.13;;;18.75;;
84814;SDS011;75050;53.190;5.562;2024-03-07T09:16:56;25.88;;;19.23;;
84814;SDS011;75050;53.190;5.562;2024-03-07T09:19:22;25.10;;;18.45;;
84814;SDS011;75050;53.190;5.562;2024-03-07T09:21:52;25.70;;;18.02;;
84814;SDS011;75050;53.190;5.562;2024-03-07T09:24:19;27.10;;;17.15;;
84814;SDS011;75050;53.190;5.562;2024-03-07T09:26:50;25.65;;;17.73;;
84814;SDS011;75050;53.190;5.562;2024-03-07T09:29:17;26.95;;;17.48;;
84814;SDS011;75050;53.190;5.562;2024-03-07T09:31:46;26.23;;;17.98;;
84814;SDS011;75050;53.190;5.562;2024-03-07T09:34:13;26.50;;;18.13;;
84814;SDS011;75050;53.190;5.562;2024-03-07T09:36:39;25.40;;;16.88;;
84814;SDS011;75050;53.190;5.562;2024-03-07T09:39:06;24.75;;;18.20;;
84814;SDS011;75050;53.190;5.562;2024-03-07T09:41:33;25.75;;;18.50;;
84814;SDS011;75050;53.190;5.562;2024-03-07T09:43:58;25.38;;;18.95;;
84814;SDS011;75050;53.190;5.562;2024-03-07T09:46:26;27.00;;;17.48;;
84814;SDS011;75050;53.190;5.562;2024-03-07T09:48:52;24.30;;;16.52;;
84814;SDS011;75050;53.190;5.562;2024-03-07T09:51:19;25.80;;;16.17;;
84814;SDS011;75050;53.190;5.562;2024-03-07T09:53:48;25.42;;;16.65;;
84814;SDS011;75050;53.190;5.562;2024-03-07T09:56:14;26.58;;;17.33;;
84814;SDS011;75050;53.190;5.562;2024-03-07T09:58:47;28.23;;;19.55;;
84814;SDS011;75050;53.190;5.562;2024-03-07T10:01:14;27.17;;;17.80;;
84814;SDS011;75050;53.190;5.562;2024-03-07T10:03:41;26.17;;;17.63;;
84814;SDS011;75050;53.190;5.562;2024-03-07T10:06:10;26.73;;;18.70;;
84814;SDS011;75050;53.190;5.562;2024-03-07T10:08:35;25.48;;;17.70;;
84814;SDS011;75050;53.190;5.562;2024-03-07T10:11:01;25.88;;;18.50;;
84814;SDS011;75050;53.190;5.562;2024-03-07T10:13:27;25.25;;;18.50;;
84814;SDS011;75050;53.190;5.562;2024-03-07T10:15:53;27.08;;;19.48;;
84814;SDS011;75050;53.190;5.562;2024-03-07T10:18:25;26.73;;;18.17;;
84814;SDS011;75050;53.190;5.562;2024-03-07T10:20:55;27.60;;;18.90;;
84814;SDS011;75050;53.190;5.562;2024-03-07T10:23:22;25.98;;;17.17;;
84814;SDS011;75050;53.190;5.562;2024-03-07T10:25:47;28.83;;;18.38;;
84814;SDS011;75050;53.190;5.562;2024-03-07T10:28:15;27.98;;;20.80;;
84814;SDS011;75050;53.190;5.562;2024-03-07T10:30:42;31.25;;;18.90;;
84814;SDS011;75050;53.190;5.562;2024-03-07T10:33:11;31.25;;;19.85;;
84814;SDS011;75050;53.190;5.562;2024-03-07T10:35:38;31.27;;;22.63;;
84814;SDS011;75050;53.190;5.562;2024-03-07T10:38:03;33.60;;;22.02;;
84814;SDS011;75050;53.190;5.562;2024-03-07T10:40:32;28.23;;;18.50;;
84814;SDS011;75050;53.190;5.562;2024-03-07T10:43:00;28.85;;;18.25;;
84814;SDS011;75050;53.190;5.562;2024-03-07T10:45:35;31.05;;;19.70;;
84814;SDS011;75050;53.190;5.562;2024-03-07T10:48:10;32.28;;;20.63;;
84814;SDS011;75050;53.190;5.562;2024-03-07T10:50:38;29.90;;;20.08;;
84814;SDS011;75050;53.190;5.562;2024-03-07T10:53:21;27.85;;;19.13;;
84814;SDS011;75050;53.190;5.562;2024-03-07T10:55:53;29.77;;;20.58;;
84814;SDS011;75050;53.190;5.562;2024-03-07T10:58:50;31.15;;;19.10;;
84814;SDS011;75050;53.190;5.562;2024-03-07T11:01:30;28.98;;;19.17;;
84814;SDS011;75050;53.190;5.562;2024-03-07T11:03:59;27.48;;;17.45;;
84814;SDS011;75050;53.190;5.562;2024-03-07T11:06:25;27.48;;;16.52;;
84814;SDS011;75050;53.190;5.562;2024-03-07T11:08:51;32.53;;;20.27;;
84814;SDS011;75050;53.190;5.562;2024-03-07T11:11:17;30.90;;;19.45;;
84814;SDS011;75050;53.190;5.562;2024-03-07T11:13:43;27.63;;;17.85;;
84814;SDS011;75050;53.190;5.562;2024-03-07T11:16:10;28.25;;;17.92;;
84814;SDS011;75050;53.190;5.562;2024-03-07T11:18:38;29.13;;;17.65;;
84814;SDS011;75050;53.190;5.562;2024-03-07T11:21:05;30.38;;;19.17;;
84814;SDS011;75050;53.190;5.562;2024-03-07T11:23:33;28.27;;;17.15;;
84814;SDS011;75050;53.190;5.562;2024-03-07T11:28:33;29.50;;;17.70;;
84814;SDS011;75050;53.190;5.562;2024-03-07T11:31:08;30.98;;;18.60;;
84814;SDS011;75050;53.190;5.562;2024-03-07T11:33:37;29.80;;;19.58;;
84814;SDS011;75050;53.190;5.562;2024-03-07T11:36:05;27.85;;;18.05;;
84814;SDS011;75050;53.190;5.562;2024-03-07T11:38:32;30.73;;;18.45;;
84814;SDS011;75050;53.190;5.562;2024-03-07T11:41:00;34.33;;;21.80;;
84814;SDS011;75050;53.190;5.562;2024-03-07T11:43:30;28.20;;;18.52;;
84814;SDS011;75050;53.190;5.562;2024-03-07T11:45:57;28.55;;;20.67;;
84814;SDS011;75050;53.190;5.562;2024-03-07T11:48:23;30.40;;;21.13;;
84814;SDS011;75050;53.190;5.562;2024-03-07T11:50:48;25.92;;;16.80;;
84814;SDS011;75050;53.190;5.562;2024-03-07T11:53:15;28.50;;;18.27;;
84814;SDS011;75050;53.190;5.562;2024-03-07T11:55:42;26.38;;;18.00;;
84814;SDS011;75050;53.190;5.562;2024-03-07T11:58:14;26.23;;;18.35;;
84814;SDS011;75050;53.190;5.562;2024-03-07T12:00:44;26.30;;;17.63;;
84814;SDS011;75050;53.190;5.562;2024-03-07T12:03:11;27.48;;;16.85;;
84814;SDS011;75050;53.190;5.562;2024-03-07T12:05:38;28.15;;;19.88;;
84814;SDS011;75050;53.190;5.562;2024-03-07T12:08:06;26.10;;;16.58;;
84814;SDS011;75050;53.190;5.562;2024-03-07T12:10:31;25.63;;;17.73;;
84814;SDS011;75050;53.190;5.562;2024-03-07T12:12:58;32.55;;;28.15;;
84814;SDS011;75050;53.190;5.562;2024-03-07T12:15:26;27.08;;;17.52;;
84814;SDS011;75050;53.190;5.562;2024-03-07T12:17:52;24.15;;;16.65;;
84814;SDS011;75050;53.190;5.562;2024-03-07T12:20:18;27.13;;;18.67;;
84814;SDS011;75050;53.190;5.562;2024-03-07T12:22:54;26.65;;;16.05;;
84814;SDS011;75050;53.190;5.562;2024-03-07T12:25:21;27.77;;;17.90;;
84814;SDS011;75050;53.190;5.562;2024-03-07T12:30:36;26.00;;;18.35;;
84814;SDS011;75050;53.190;5.562;2024-03-07T12:33:12;27.48;;;17.00;;
84814;SDS011;75050;53.190;5.562;2024-03-07T12:35:47;25.70;;;18.23;;
84814;SDS011;75050;53.190;5.562;2024-03-07T12:38:15;27.30;;;18.25;;
84814;SDS011;75050;53.190;5.562;2024-03-07T12:40:42;25.42;;;17.45;;
84814;SDS011;75050;53.190;5.562;2024-03-07T12:43:20;27.40;;;17.65;;
84814;SDS011;75050;53.190;5.562;2024-03-07T12:45:47;27.08;;;17.73;;
84814;SDS011;75050;53.190;5.562;2024-03-07T12:48:14;27.55;;;18.00;;
84814;SDS011;75050;53.190;5.562;2024-03-07T12:50:41;23.85;;;17.80;;
84814;SDS011;75050;53.190;5.562;2024-03-07T12:53:07;26.60;;;16.85;;
84814;SDS011;75050;53.190;5.562;2024-03-07T12:55:37;25.80;;;16.65;;
84814;SDS011;75050;53.190;5.562;2024-03-07T12:58:11;24.85;;;18.05;;
84814;SDS011;75050;53.190;5.562;2024-03-07T13:00:40;27.52;;;20.10;;
84814;SDS011;75050;53.190;5.562;2024-03-07T13:03:06;25.23;;;17.00;;
84814;SDS011;75050;53.190;5.562;2024-03-07T13:05:32;25.80;;;16.85;;
84814;SDS011;75050;53.190;5.562;2024-03-07T13:07:58;26.60;;;17.83;;
84814;SDS011;75050;53.190;5.562;2024-03-07T13:10:23;26.17;;;15.70;;
84814;SDS011;75050;53.190;5.562;2024-03-07T13:12:49;23.60;;;16.70;;
84814;SDS011;75050;53.190;5.562;2024-03-07T13:15:15;24.05;;;17.02;;
84814;SDS011;75050;53.190;5.562;2024-03-07T13:17:41;24.20;;;17.10;;
84814;SDS011;75050;53.190;5.562;2024-03-07T13:20:16;26.33;;;17.90;;
84814;SDS011;75050;53.190;5.562;2024-03-07T13:22:41;27.40;;;18.17;;
84814;SDS011;75050;53.190;5.562;2024-03-07T13:25:08;24.83;;;18.77;;
84814;SDS011;75050;53.190;5.562;2024-03-07T13:27:39;24.48;;;16.05;;
84814;SDS011;75050;53.190;5.562;2024-03-07T13:30:06;25.95;;;17.35;;
84814;SDS011;75050;53.190;5.562;2024-03-07T13:32:32;23.67;;;14.80;;
84814;SDS011;75050;53.190;5.562;2024-03-07T13:34:58;26.17;;;17.92;;
84814;SDS011;75050;53.190;5.562;2024-03-07T13:37:26;23.15;;;15.25;;
84814;SDS011;75050;53.190;5.562;2024-03-07T13:39:52;24.90;;;16.17;;
84814;SDS011;75050;53.190;5.562;2024-03-07T13:42:17;22.10;;;16.40;;
84814;SDS011;75050;53.190;5.562;2024-03-07T13:44:43;22.77;;;15.02;;
84814;SDS011;75050;53.190;5.562;2024-03-07T13:47:09;24.27;;;16.15;;
84814;SDS011;75050;53.190;5.562;2024-03-07T13:49:35;22.85;;;15.52;;
84814;SDS011;75050;53.190;5.562;2024-03-07T13:52:03;26.25;;;16.63;;
84814;SDS011;75050;53.190;5.562;2024-03-07T13:54:35;27.70;;;18.70;;
84814;SDS011;75050;53.190;5.562;2024-03-07T14:23:20;24.05;;;16.63;;
84814;SDS011;75050;53.190;5.562;2024-03-07T14:28:53;21.00;;;14.75;;
84814;SDS011;75050;53.190;5.562;2024-03-07T14:31:23;22.73;;;15.32;;
84814;SDS011;75050;53.190;5.562;2024-03-07T14:39:10;22.40;;;15.10;;
84814;SDS011;75050;53.190;5.562;2024-03-07T14:42:01;21.45;;;14.60;;
84814;SDS011;75050;53.190;5.562;2024-03-07T14:44:26;22.88;;;16.30;;
84814;SDS011;75050;53.190;5.562;2024-03-07T14:46:54;22.20;;;14.50;;
84814;SDS011;75050;53.190;5.562;2024-03-07T14:49:23;26.38;;;23.70;;
84814;SDS011;75050;53.190;5.562;2024-03-07T14:51:48;21.48;;;15.10;;
84814;SDS011;75050;53.190;5.562;2024-03-07T14:54:15;20.67;;;14.65;;
84814;SDS011;75050;53.190;5.562;2024-03-07T14:56:41;20.30;;;13.93;;
84814;SDS011;75050;53.190;5.562;2024-03-07T14:59:07;24.83;;;15.10;;
84814;SDS011;75050;53.190;5.562;2024-03-07T15:01:32;20.83;;;14.93;;
84814;SDS011;75050;53.190;5.562;2024-03-07T15:04:01;25.48;;;16.88;;
84814;SDS011;75050;53.190;5.562;2024-03-07T15:06:31;19.85;;;14.55;;